sensor_id;sensor_type;location;lat;lon;timestamp;temperature;humidity
5631;DHT22;2837;50.990;7.124;2023-04-15T05:02:19;8.40;99.90
5631;DHT22;2837;50.990;7.124;2023-04-15T05:04:45;8.40;99.90
5631;DHT22;2837;50.990;7.124;2023-04-15T05:07:11;8.40;99.90
5631;DHT22;2837;50.990;7.124;2023-04-15T05:09:36;8.40;99.90
5631;DHT22;2837;50.990;7.124;2023-04-15T05:12:03;8.40;99.90
5631;DHT22;2837;50.990;7.124;2023-04-15T05:14:29;8.40;99.90
5631;DHT22;2837;50.990;7.124;2023-04-15T05:16:55;8.50;99.90
5631;DHT22;2837;50.990;7.124;2023-04-15T05:19:21;8.40;99.90
5631;DHT22;2837;50.990;7.124;2023-04-15T05:21:46;8.30;99.90
5631;DHT22;2837;50.990;7.124;2023-04-15T05:24:12;8.40;99.90
5631;DHT22;2837;50.990;7.124;2023-04-15T05:26:37;8.30;99.90
5631;DHT22;2837;50.990;7.124;2023-04-15T05:29:03;8.20;99.90
5631;DHT22;2837;50.990;7.124;2023-04-15T05:31:28;8.40;99.90
5631;DHT22;2837;50.990;7.124;2023-04-15T05:33:54;8.50;99.90
5631;DHT22;2837;50.990;7.124;2023-04-15T05:36:19;8.50;99.90
5631;DHT22;2837;50.990;7.124;2023-04-15T05:38:45;8.30;99.90
5631;DHT22;2837;50.990;7.124;2023-04-15T05:41:11;8.20;99.90
5631;DHT22;2837;50.990;7.124;2023-04-15T05:43:36;8.30;99.90
5631;DHT22;2837;50.990;7.124;2023-04-15T05:46:02;8.40;99.90
5631;DHT22;2837;50.990;7.124;2023-04-15T05:48:27;8.50;99.90
5631;DHT22;2837;50.990;7.124;2023-04-15T05:50:53;8.60;99.90
5631;DHT22;2837;50.990;7.124;2023-04-15T05:53:19;8.70;99.90
5631;DHT22;2837;50.990;7.124;2023-04-15T05:55:45;8.60;99.90
5631;DHT22;2837;50.990;7.124;2023-04-15T05:58:10;8.70;99.90
5631;DHT22;2837;50.990;7.124;2023-04-15T06:00:36;8.80;99.90
5631;DHT22;2837;50.990;7.124;2023-04-15T06:03:03;8.70;99.90
5631;DHT22;2837;50.990;7.124;2023-04-15T06:05:28;8.60;99.90
5631;DHT22;2837;50.990;7.124;2023-04-15T06:07:54;8.60;99.90
5631;DHT22;2837;50.990;7.124;2023-04-15T06:10:19;8.50;99.90
5631;DHT22;2837;50.990;7.124;2023-04-15T06:12:45;8.60;99.90
5631;DHT22;2837;50.990;7.124;2023-04-15T06:15:10;8.60;99.90
5631;DHT22;2837;50.990;7.124;2023-04-15T06:17:36;8.70;99.90
5631;DHT22;2837;50.990;7.124;2023-04-15T06:20:02;8.70;99.90
5631;DHT22;2837;50.990;7.124;2023-04-15T06:22:28;8.90;99.90
5631;DHT22;2837;50.990;7.124;2023-04-15T06:24:54;8.90;99.90
5631;DHT22;2837;50.990;7.124;2023-04-15T06:27:19;9.00;99.90
5631;DHT22;2837;50.990;7.124;2023-04-15T06:29:45;9.20;99.90
5631;DHT22;2837;50.990;7.124;2023-04-15T06:32:12;9.40;99.90
5631;DHT22;2837;50.990;7.124;2023-04-15T06:34:37;9.60;99.90
5631;DHT22;2837;50.990;7.124;2023-04-15T06:37:03;9.50;99.90
5631;DHT22;2837;50.990;7.124;2023-04-15T06:39:28;9.60;99.90
5631;DHT22;2837;50.990;7.124;2023-04-15T06:41:54;9.70;99.90
5631;DHT22;2837;50.990;7.124;2023-04-15T06:44:20;9.70;99.90
5631;DHT22;2837;50.990;7.124;2023-04-15T06:46:46;9.80;99.90
5631;DHT22;2837;50.990;7.124;2023-04-15T06:49:11;9.80;99.90
5631;DHT22;2837;50.990;7.124;2023-04-15T06:51:37;9.90;99.90
5631;DHT22;2837;50.990;7.124;2023-04-15T06:54:03;10.00;99.90
5631;DHT22;2837;50.990;7.124;2023-04-15T06:56:31;10.30;99.90
5631;DHT22;2837;50.990;7.124;2023-04-15T06:58:56;10.20;99.90
5631;DHT22;2837;50.990;7.124;2023-04-15T07:01:22;10.30;99.90
5631;DHT22;2837;50.990;7.124;2023-04-15T07:03:47;10.40;99.90
5631;DHT22;2837;50.990;7.124;2023-04-15T07:06:13;10.50;99.90
5631;DHT22;2837;50.990;7.124;2023-04-15T07:08:39;10.50;99.90
5631;DHT22;2837;50.990;7.124;2023-04-15T07:11:04;10.60;99.90
5631;DHT22;2837;50.990;7.124;2023-04-15T07:13:31;10.80;99.90
5631;DHT22;2837;50.990;7.124;2023-04-15T07:15:57;10.80;99.90
5631;DHT22;2837;50.990;7.124;2023-04-15T07:18:23;10.80;99.90
5631;DHT22;2837;50.990;7.124;2023-04-15T07:20:48;10.80;99.90
5631;DHT22;2837;50.990;7.124;2023-04-15T07:23:14;10.90;99.90
5631;DHT22;2837;50.990;7.124;2023-04-15T07:25:39;10.90;99.90
5631;DHT22;2837;50.990;7.124;2023-04-15T07:28:05;11.00;99.90
5631;DHT22;2837;50.990;7.124;2023-04-15T07:30:31;11.10;99.90
5631;DHT22;2837;50.990;7.124;2023-04-15T07:32:57;11.00;99.90
5631;DHT22;2837;50.990;7.124;2023-04-15T07:35:23;11.10;99.90
5631;DHT22;2837;50.990;7.124;2023-04-15T07:37:50;11.10;99.90
5631;DHT22;2837;50.990;7.124;2023-04-15T07:40:16;11.10;99.90
5631;DHT22;2837;50.990;7.124;2023-04-15T07:42:42;11.10;99.90
5631;DHT22;2837;50.990;7.124;2023-04-15T07:45:09;11.20;99.90
5631;DHT22;2837;50.990;7.124;2023-04-15T07:47:34;11.30;99.90
5631;DHT22;2837;50.990;7.124;2023-04-15T07:50:00;11.30;99.90
5631;DHT22;2837;50.990;7.124;2023-04-15T07:52:27;11.30;99.90
5631;DHT22;2837;50.990;7.124;2023-04-15T07:54:52;11.30;99.90
5631;DHT22;2837;50.990;7.124;2023-04-15T07:57:18;11.30;99.90
5631;DHT22;2837;50.990;7.124;2023-04-15T07:59:43;11.30;99.90
5631;DHT22;2837;50.990;7.124;2023-04-15T08:02:10;11.40;99.90
5631;DHT22;2837;50.990;7.124;2023-04-15T08:04:36;11.50;99.90
5631;DHT22;2837;50.990;7.124;2023-04-15T08:07:02;11.60;99.90
5631;DHT22;2837;50.990;7.124;2023-04-15T08:09:29;11.60;99.90
5631;DHT22;2837;50.990;7.124;2023-04-15T08:11:54;11.70;99.90
5631;DHT22;2837;50.990;7.124;2023-04-15T08:14:21;11.70;99.90
5631;DHT22;2837;50.990;7.124;2023-04-15T08:16:47;11.60;99.90
5631;DHT22;2837;50.990;7.124;2023-04-15T08:19:12;11.60;99.90
5631;DHT22;2837;50.990;7.124;2023-04-15T08:21:38;11.60;99.90
5631;DHT22;2837;50.990;7.124;2023-04-15T08:24:05;11.50;99.90
5631;DHT22;2837;50.990;7.124;2023-04-15T08:26:31;11.60;99.90
5631;DHT22;2837;50.990;7.124;2023-04-15T08:28:57;11.60;99.90
5631;DHT22;2837;50.990;7.124;2023-04-15T08:31:25;11.60;99.90
5631;DHT22;2837;50.990;7.124;2023-04-15T08:33:50;11.60;99.90
5631;DHT22;2837;50.990;7.124;2023-04-15T08:36:16;11.70;99.90
5631;DHT22;2837;50.990;7.124;2023-04-15T08:38:43;11.70;99.90
5631;DHT22;2837;50.990;7.124;2023-04-15T08:44:04;11.80;99.90
5631;DHT22;2837;50.990;7.124;2023-04-15T08:46:31;11.90;99.90
5631;DHT22;2837;50.990;7.124;2023-04-15T08:48:59;11.90;99.90
5631;DHT22;2837;50.990;7.124;2023-04-15T08:51:28;12.00;99.90
5631;DHT22;2837;50.990;7.124;2023-04-15T08:53:54;11.90;99.90
5631;DHT22;2837;50.990;7.124;2023-04-15T08:56:23;12.00;99.90
5631;DHT22;2837;50.990;7.124;2023-04-15T08:58:49;12.00;99.90
5631;DHT22;2837;50.990;7.124;2023-04-15T09:01:15;12.10;99.90
5631;DHT22;2837;50.990;7.124;2023-04-15T09:03:41;12.10;99.90
5631;DHT22;2837;50.990;7.124;2023-04-15T09:06:07;12.10;99.90
5631;DHT22;2837;50.990;7.124;2023-04-15T09:08:33;12.20;99.90
5631;DHT22;2837;50.990;7.124;2023-04-15T09:11:01;12.20;99.90
5631;DHT22;2837;50.990;7.124;2023-04-15T09:13:27;12.20;99.90
5631;DHT22;2837;50.990;7.124;2023-04-15T09:15:53;12.20;99.90
5631;DHT22;2837;50.990;7.124;2023-04-15T09:18:27;12.30;99.90
5631;DHT22;2837;50.990;7.124;2023-04-15T09:20:53;12.30;99.90
5631;DHT22;2837;50.990;7.124;2023-04-15T09:23:19;12.30;99.90
5631;DHT22;2837;50.990;7.124;2023-04-15T09:25:45;12.40;98.20
5631;DHT22;2837;50.990;7.124;2023-04-15T09:28:11;12.60;96.80
5631;DHT22;2837;50.990;7.124;2023-04-15T09:30:36;12.30;95.00
5631;DHT22;2837;50.990;7.124;2023-04-15T09:33:03;12.30;97.70
5631;DHT22;2837;50.990;7.124;2023-04-15T09:35:33;12.30;97.70
5631;DHT22;2837;50.990;7.124;2023-04-15T09:38:05;12.30;94.70
5631;DHT22;2837;50.990;7.124;2023-04-15T09:40:36;12.50;93.80
5631;DHT22;2837;50.990;7.124;2023-04-15T09:43:03;12.30;97.80
5631;DHT22;2837;50.990;7.124;2023-04-15T09:45:30;12.40;91.60
5631;DHT22;2837;50.990;7.124;2023-04-15T09:48:15;12.30;92.10
5631;DHT22;2837;50.990;7.124;2023-04-15T09:50:42;12.30;90.50
5631;DHT22;2837;50.990;7.124;2023-04-15T09:53:09;12.30;91.00
5631;DHT22;2837;50.990;7.124;2023-04-15T09:55:35;12.20;93.90
5631;DHT22;2837;50.990;7.124;2023-04-15T09:58:00;12.20;95.50
5631;DHT22;2837;50.990;7.124;2023-04-15T10:00:28;12.20;99.90
5631;DHT22;2837;50.990;7.124;2023-04-15T10:02:54;12.40;99.90
5631;DHT22;2837;50.990;7.124;2023-04-15T10:05:19;12.30;99.90
5631;DHT22;2837;50.990;7.124;2023-04-15T10:07:46;12.40;99.90
5631;DHT22;2837;50.990;7.124;2023-04-15T10:10:13;12.40;99.90
5631;DHT22;2837;50.990;7.124;2023-04-15T10:12:40;12.40;99.90
5631;DHT22;2837;50.990;7.124;2023-04-15T10:15:15;12.50;99.90
5631;DHT22;2837;50.990;7.124;2023-04-15T10:17:43;12.50;99.90
5631;DHT22;2837;50.990;7.124;2023-04-15T10:20:09;12.60;99.90
5631;DHT22;2837;50.990;7.124;2023-04-15T10:22:37;12.60;99.90
5631;DHT22;2837;50.990;7.124;2023-04-15T10:25:03;12.60;99.90
5631;DHT22;2837;50.990;7.124;2023-04-15T10:27:30;12.60;99.90
5631;DHT22;2837;50.990;7.124;2023-04-15T10:29:56;12.70;99.90
5631;DHT22;2837;50.990;7.124;2023-04-15T10:32:23;12.70;99.90
5631;DHT22;2837;50.990;7.124;2023-04-15T10:34:49;12.90;99.90
5631;DHT22;2837;50.990;7.124;2023-04-15T10:37:32;12.80;99.90
5631;DHT22;2837;50.990;7.124;2023-04-15T10:39:58;12.80;99.90
5631;DHT22;2837;50.990;7.124;2023-04-15T10:42:23;12.80;99.90
5631;DHT22;2837;50.990;7.124;2023-04-15T10:44:50;12.70;99.90
5631;DHT22;2837;50.990;7.124;2023-04-15T10:47:18;12.80;99.90
5631;DHT22;2837;50.990;7.124;2023-04-15T10:49:54;12.80;99.90
5631;DHT22;2837;50.990;7.124;2023-04-15T10:52:23;12.90;99.90
5631;DHT22;2837;50.990;7.124;2023-04-15T10:54:49;12.90;99.90
5631;DHT22;2837;50.990;7.124;2023-04-15T10:57:21;13.00;99.90
5631;DHT22;2837;50.990;7.124;2023-04-15T11:00:10;12.90;99.90
5631;DHT22;2837;50.990;7.124;2023-04-15T11:02:40;13.00;99.90
5631;DHT22;2837;50.990;7.124;2023-04-15T11:05:06;13.00;99.90
5631;DHT22;2837;50.990;7.124;2023-04-15T11:12:44;13.00;99.90
5631;DHT22;2837;50.990;7.124;2023-04-15T11:15:31;13.00;99.90
5631;DHT22;2837;50.990;7.124;2023-04-15T11:18:21;13.00;99.90
5631;DHT22;2837;50.990;7.124;2023-04-15T11:20:48;13.00;99.90
5631;DHT22;2837;50.990;7.124;2023-04-15T11:23:18;13.00;99.90
5631;DHT22;2837;50.990;7.124;2023-04-15T11:25:44;12.90;99.90
5631;DHT22;2837;50.990;7.124;2023-04-15T11:28:11;12.90;99.90
5631;DHT22;2837;50.990;7.124;2023-04-15T11:30:38;12.90;99.90
5631;DHT22;2837;50.990;7.124;2023-04-15T11:33:06;12.90;99.90
5631;DHT22;2837;50.990;7.124;2023-04-15T11:35:33;13.10;99.90
5631;DHT22;2837;50.990;7.124;2023-04-15T11:38:02;13.00;99.90
5631;DHT22;2837;50.990;7.124;2023-04-15T11:40:29;12.90;99.90
5631;DHT22;2837;50.990;7.124;2023-04-15T11:43:18;13.00;99.90
5631;DHT22;2837;50.990;7.124;2023-04-15T11:45:59;13.00;99.90
5631;DHT22;2837;50.990;7.124;2023-04-15T11:48:35;13.00;99.90
5631;DHT22;2837;50.990;7.124;2023-04-15T11:51:02;12.90;99.90
5631;DHT22;2837;50.990;7.124;2023-04-15T11:53:45;12.80;99.90
5631;DHT22;2837;50.990;7.124;2023-04-15T11:58:41;12.70;99.90
5631;DHT22;2837;50.990;7.124;2023-04-15T12:01:09;12.50;99.90
5631;DHT22;2837;50.990;7.124;2023-04-15T12:03:44;12.60;99.90
5631;DHT22;2837;50.990;7.124;2023-04-15T12:06:22;12.50;99.90
5631;DHT22;2837;50.990;7.124;2023-04-15T12:08:55;12.50;99.90
5631;DHT22;2837;50.990;7.124;2023-04-15T12:11:35;12.50;99.90
5631;DHT22;2837;50.990;7.124;2023-04-15T12:14:11;12.40;99.90
5631;DHT22;2837;50.990;7.124;2023-04-15T12:16:45;12.40;99.90
5631;DHT22;2837;50.990;7.124;2023-04-15T12:19:14;12.40;99.90
5631;DHT22;2837;50.990;7.124;2023-04-15T12:21:43;12.30;99.90
5631;DHT22;2837;50.990;7.124;2023-04-15T12:24:09;12.30;99.90
5631;DHT22;2837;50.990;7.124;2023-04-15T12:27:00;12.20;99.90
5631;DHT22;2837;50.990;7.124;2023-04-15T12:29:27;12.20;99.90
5631;DHT22;2837;50.990;7.124;2023-04-15T12:31:55;12.20;99.90
5631;DHT22;2837;50.990;7.124;2023-04-15T12:34:32;12.20;99.90
5631;DHT22;2837;50.990;7.124;2023-04-15T12:36:59;12.10;99.90
5631;DHT22;2837;50.990;7.124;2023-04-15T12:39:27;12.00;99.90
5631;DHT22;2837;50.990;7.124;2023-04-15T12:41:53;12.00;99.90
5631;DHT22;2837;50.990;7.124;2023-04-15T12:44:20;12.00;99.90
5631;DHT22;2837;50.990;7.124;2023-04-15T12:46:47;11.90;99.90
5631;DHT22;2837;50.990;7.124;2023-04-15T12:49:12;11.90;99.90
5631;DHT22;2837;50.990;7.124;2023-04-15T12:51:43;11.90;99.90
5631;DHT22;2837;50.990;7.124;2023-04-15T12:54:09;11.80;99.90
5631;DHT22;2837;50.990;7.124;2023-04-15T12:56:35;11.90;99.90
5631;DHT22;2837;50.990;7.124;2023-04-15T12:59:01;11.90;99.90
5631;DHT22;2837;50.990;7.124;2023-04-15T13:01:26;11.80;99.90
5631;DHT22;2837;50.990;7.124;2023-04-15T13:03:52;11.80;99.90
5631;DHT22;2837;50.990;7.124;2023-04-15T13:06:18;11.80;99.90
5631;DHT22;2837;50.990;7.124;2023-04-15T13:08:43;11.80;99.90
5631;DHT22;2837;50.990;7.124;2023-04-15T13:11:09;11.80;99.90
5631;DHT22;2837;50.990;7.124;2023-04-15T13:13:34;11.80;99.90
5631;DHT22;2837;50.990;7.124;2023-04-15T13:16:00;11.80;99.90
5631;DHT22;2837;50.990;7.124;2023-04-15T13:18:26;11.90;99.90
5631;DHT22;2837;50.990;7.124;2023-04-15T13:20:53;11.90;99.90
5631;DHT22;2837;50.990;7.124;2023-04-15T13:23:18;11.90;99.90
5631;DHT22;2837;50.990;7.124;2023-04-15T13:25:44;11.90;99.90
5631;DHT22;2837;50.990;7.124;2023-04-15T13:28:11;12.10;99.90
5631;DHT22;2837;50.990;7.124;2023-04-15T13:30:37;11.80;99.90
5631;DHT22;2837;50.990;7.124;2023-04-15T13:33:03;11.80;99.90
5631;DHT22;2837;50.990;7.124;2023-04-15T13:35:28;11.90;99.90
5631;DHT22;2837;50.990;7.124;2023-04-15T13:37:54;11.90;99.90
5631;DHT22;2837;50.990;7.124;2023-04-15T13:40:20;11.90;99.90
5631;DHT22;2837;50.990;7.124;2023-04-15T13:42:46;11.90;99.90
5631;DHT22;2837;50.990;7.124;2023-04-15T13:45:11;11.80;99.90
5631;DHT22;2837;50.990;7.124;2023-04-15T13:47:37;11.80;99.90
5631;DHT22;2837;50.990;7.124;2023-04-15T13:50:03;11.80;99.90
5631;DHT22;2837;50.990;7.124;2023-04-15T13:52:29;11.70;99.90
5631;DHT22;2837;50.990;7.124;2023-04-15T13:54:55;11.70;99.90
5631;DHT22;2837;50.990;7.124;2023-04-15T13:57:21;11.70;99.90
5631;DHT22;2837;50.990;7.124;2023-04-15T13:59:46;11.60;99.90
5631;DHT22;2837;50.990;7.124;2023-04-15T14:02:12;11.60;99.90
5631;DHT22;2837;50.990;7.124;2023-04-15T14:04:37;11.40;99.90
5631;DHT22;2837;50.990;7.124;2023-04-15T14:07:03;11.50;99.90
5631;DHT22;2837;50.990;7.124;2023-04-15T14:09:29;11.50;99.90
5631;DHT22;2837;50.990;7.124;2023-04-15T14:11:55;11.50;99.90
5631;DHT22;2837;50.990;7.124;2023-04-15T14:14:20;11.50;99.90
5631;DHT22;2837;50.990;7.124;2023-04-15T14:16:46;11.40;99.90
5631;DHT22;2837;50.990;7.124;2023-04-15T14:19:13;11.40;99.90
5631;DHT22;2837;50.990;7.124;2023-04-15T14:21:38;11.40;99.90
5631;DHT22;2837;50.990;7.124;2023-04-15T14:24:04;11.40;99.90
5631;DHT22;2837;50.990;7.124;2023-04-15T14:26:30;11.30;99.90
5631;DHT22;2837;50.990;7.124;2023-04-15T14:28:55;11.40;99.90
5631;DHT22;2837;50.990;7.124;2023-04-15T14:31:21;11.40;99.90
5631;DHT22;2837;50.990;7.124;2023-04-15T14:33:46;11.40;99.90
5631;DHT22;2837;50.990;7.124;2023-04-15T14:36:12;11.50;99.90
5631;DHT22;2837;50.990;7.124;2023-04-15T14:38:37;11.50;99.90
5631;DHT22;2837;50.990;7.124;2023-04-15T14:41:04;11.80;99.90
5631;DHT22;2837;50.990;7.124;2023-04-15T14:43:30;11.60;99.90
5631;DHT22;2837;50.990;7.124;2023-04-15T14:45:56;11.70;99.90
5631;DHT22;2837;50.990;7.124;2023-04-15T14:48:21;11.70;99.90
5631;DHT22;2837;50.990;7.124;2023-04-15T14:50:47;11.70;99.90
5631;DHT22;2837;50.990;7.124;2023-04-15T14:53:12;11.70;99.90
5631;DHT22;2837;50.990;7.124;2023-04-15T14:55:38;11.70;99.90
5631;DHT22;2837;50.990;7.124;2023-04-15T14:58:05;11.70;99.90
5631;DHT22;2837;50.990;7.124;2023-04-15T15:00:32;11.70;99.90
5631;DHT22;2837;50.990;7.124;2023-04-15T15:02:58;11.70;99.90
5631;DHT22;2837;50.990;7.124;2023-04-15T15:05:23;11.70;99.90
5631;DHT22;2837;50.990;7.124;2023-04-15T15:07:50;11.70;99.90
5631;DHT22;2837;50.990;7.124;2023-04-15T15:10:15;11.70;99.90
5631;DHT22;2837;50.990;7.124;2023-04-15T15:12:41;11.80;99.90
5631;DHT22;2837;50.990;7.124;2023-04-15T15:15:07;11.70;99.90
5631;DHT22;2837;50.990;7.124;2023-04-15T15:17:34;11.70;99.90
5631;DHT22;2837;50.990;7.124;2023-04-15T15:20:00;11.60;99.90
5631;DHT22;2837;50.990;7.124;2023-04-15T15:22:26;11.60;99.90
5631;DHT22;2837;50.990;7.124;2023-04-15T15:24:51;11.50;99.90
5631;DHT22;2837;50.990;7.124;2023-04-15T15:27:17;11.60;99.90
5631;DHT22;2837;50.990;7.124;2023-04-15T15:29:43;11.60;99.90
5631;DHT22;2837;50.990;7.124;2023-04-15T15:32:09;11.50;99.90
5631;DHT22;2837;50.990;7.124;2023-04-15T15:34:34;11.50;99.90
5631;DHT22;2837;50.990;7.124;2023-04-15T15:37:00;11.40;99.90
5631;DHT22;2837;50.990;7.124;2023-04-15T15:39:26;11.50;99.90
5631;DHT22;2837;50.990;7.124;2023-04-15T15:41:52;11.40;99.90
5631;DHT22;2837;50.990;7.124;2023-04-15T15:44:17;11.40;99.90
5631;DHT22;2837;50.990;7.124;2023-04-15T15:46:43;11.60;99.90
5631;DHT22;2837;50.990;7.124;2023-04-15T15:49:10;11.30;99.90
5631;DHT22;2837;50.990;7.124;2023-04-15T15:51:35;11.40;99.90
5631;DHT22;2837;50.990;7.124;2023-04-15T15:54:01;11.30;99.90
5631;DHT22;2837;50.990;7.124;2023-04-15T15:56:26;11.20;99.90
5631;DHT22;2837;50.990;7.124;2023-04-15T15:58:52;11.20;99.90
5631;DHT22;2837;50.990;7.124;2023-04-15T16:01:17;11.20;99.90
5631;DHT22;2837;50.990;7.124;2023-04-15T16:03:43;11.20;99.90
5631;DHT22;2837;50.990;7.124;2023-04-15T16:06:09;11.20;99.90
5631;DHT22;2837;50.990;7.124;2023-04-15T16:08:34;11.30;99.90
5631;DHT22;2837;50.990;7.124;2023-04-15T16:11:00;11.10;99.90
5631;DHT22;2837;50.990;7.124;2023-04-15T16:13:26;11.10;99.90
5631;DHT22;2837;50.990;7.124;2023-04-15T16:15:51;11.30;99.90
5631;DHT22;2837;50.990;7.124;2023-04-15T16:18:17;11.20;99.90
5631;DHT22;2837;50.990;7.124;2023-04-15T16:20:43;11.20;99.90
5631;DHT22;2837;50.990;7.124;2023-04-15T16:23:13;11.10;99.90
5631;DHT22;2837;50.990;7.124;2023-04-15T16:25:41;11.10;99.90
5631;DHT22;2837;50.990;7.124;2023-04-15T16:28:07;11.20;99.90
5631;DHT22;2837;50.990;7.124;2023-04-15T16:30:37;11.10;99.90
5631;DHT22;2837;50.990;7.124;2023-04-15T16:33:04;11.00;99.90
5631;DHT22;2837;50.990;7.124;2023-04-15T16:35:30;11.00;99.90
5631;DHT22;2837;50.990;7.124;2023-04-15T16:37:56;11.00;99.90
5631;DHT22;2837;50.990;7.124;2023-04-15T16:40:22;11.30;99.90
5631;DHT22;2837;50.990;7.124;2023-04-15T16:42:48;11.00;99.90
5631;DHT22;2837;50.990;7.124;2023-04-15T16:45:14;11.10;99.90
5631;DHT22;2837;50.990;7.124;2023-04-15T16:47:40;11.20;99.90
5631;DHT22;2837;50.990;7.124;2023-04-15T16:50:06;11.10;99.90
5631;DHT22;2837;50.990;7.124;2023-04-15T16:52:32;11.10;99.90
5631;DHT22;2837;50.990;7.124;2023-04-15T16:54:57;11.20;99.90
5631;DHT22;2837;50.990;7.124;2023-04-15T16:57:23;11.10;99.90
5631;DHT22;2837;50.990;7.124;2023-04-15T16:59:48;11.10;99.90
5631;DHT22;2837;50.990;7.124;2023-04-15T17:02:14;11.10;99.90
5631;DHT22;2837;50.990;7.124;2023-04-15T17:04:40;11.10;99.90
5631;DHT22;2837;50.990;7.124;2023-04-15T17:07:06;11.10;99.90
5631;DHT22;2837;50.990;7.124;2023-04-15T17:09:33;11.40;99.90
5631;DHT22;2837;50.990;7.124;2023-04-15T17:11:59;11.20;99.90
5631;DHT22;2837;50.990;7.124;2023-04-15T17:14:26;11.00;99.90
5631;DHT22;2837;50.990;7.124;2023-04-15T17:16:53;11.10;99.90
5631;DHT22;2837;50.990;7.124;2023-04-15T17:19:18;11.10;99.90
5631;DHT22;2837;50.990;7.124;2023-04-15T17:21:44;11.10;99.90
5631;DHT22;2837;50.990;7.124;2023-04-15T17:24:10;11.10;99.90
5631;DHT22;2837;50.990;7.124;2023-04-15T17:26:35;11.10;99.90
5631;DHT22;2837;50.990;7.124;2023-04-15T17:29:01;11.10;99.90
5631;DHT22;2837;50.990;7.124;2023-04-15T17:31:27;11.10;99.90
5631;DHT22;2837;50.990;7.124;2023-04-15T17:33:54;11.00;99.90
5631;DHT22;2837;50.990;7.124;2023-04-15T17:36:20;11.00;99.90
5631;DHT22;2837;50.990;7.124;2023-04-15T17:38:46;11.00;99.90
5631;DHT22;2837;50.990;7.124;2023-04-15T17:41:11;10.90;99.90
5631;DHT22;2837;50.990;7.124;2023-04-15T17:43:37;10.90;99.90
5631;DHT22;2837;50.990;7.124;2023-04-15T17:46:04;11.20;99.90
5631;DHT22;2837;50.990;7.124;2023-04-15T17:48:29;10.80;99.90
5631;DHT22;2837;50.990;7.124;2023-04-15T17:50:55;10.80;99.90
5631;DHT22;2837;50.990;7.124;2023-04-15T17:53:21;11.00;99.90
5631;DHT22;2837;50.990;7.124;2023-04-15T17:55:46;10.80;99.90
5631;DHT22;2837;50.990;7.124;2023-04-15T17:58:12;10.80;99.90
5631;DHT22;2837;50.990;7.124;2023-04-15T18:00:37;10.80;99.90
5631;DHT22;2837;50.990;7.124;2023-04-15T18:03:03;10.80;99.90
5631;DHT22;2837;50.990;7.124;2023-04-15T18:05:28;10.90;99.90
5631;DHT22;2837;50.990;7.124;2023-04-15T18:07:54;11.00;99.90
5631;DHT22;2837;50.990;7.124;2023-04-15T18:10:20;10.90;99.90
5631;DHT22;2837;50.990;7.124;2023-04-15T18:12:46;11.00;99.90
5631;DHT22;2837;50.990;7.124;2023-04-15T18:15:12;11.00;99.90
5631;DHT22;2837;50.990;7.124;2023-04-15T18:17:38;10.90;99.90
5631;DHT22;2837;50.990;7.124;2023-04-15T18:20:05;10.90;99.90
5631;DHT22;2837;50.990;7.124;2023-04-15T18:22:30;10.80;99.90
5631;DHT22;2837;50.990;7.124;2023-04-15T18:24:56;10.70;99.90
5631;DHT22;2837;50.990;7.124;2023-04-15T18:27:29;10.70;99.90
5631;DHT22;2837;50.990;7.124;2023-04-15T18:29:54;10.70;99.90
5631;DHT22;2837;50.990;7.124;2023-04-15T18:32:20;10.70;99.90
5631;DHT22;2837;50.990;7.124;2023-04-15T18:34:47;10.70;99.90
5631;DHT22;2837;50.990;7.124;2023-04-15T18:37:13;10.70;99.90
5631;DHT22;2837;50.990;7.124;2023-04-15T18:39:38;10.60;99.90
5631;DHT22;2837;50.990;7.124;2023-04-15T18:42:04;10.60;99.90
5631;DHT22;2837;50.990;7.124;2023-04-15T18:44:29;10.50;99.90
5631;DHT22;2837;50.990;7.124;2023-04-15T18:46:55;10.50;99.90
5631;DHT22;2837;50.990;7.124;2023-04-15T18:49:20;10.50;99.90
5631;DHT22;2837;50.990;7.124;2023-04-15T18:51:46;10.50;99.90
5631;DHT22;2837;50.990;7.124;2023-04-15T18:54:12;10.50;99.90
5631;DHT22;2837;50.990;7.124;2023-04-15T18:56:37;10.60;99.90
5631;DHT22;2837;50.990;7.124;2023-04-15T18:59:03;10.60;99.90
5631;DHT22;2837;50.990;7.124;2023-04-15T19:01:30;10.60;99.90
5631;DHT22;2837;50.990;7.124;2023-04-15T19:03:55;10.60;99.90
5631;DHT22;2837;50.990;7.124;2023-04-15T19:06:21;10.80;99.90
5631;DHT22;2837;50.990;7.124;2023-04-15T19:08:47;10.60;99.90
5631;DHT22;2837;50.990;7.124;2023-04-15T19:11:13;10.60;99.90
5631;DHT22;2837;50.990;7.124;2023-04-15T19:13:38;10.60;99.90
5631;DHT22;2837;50.990;7.124;2023-04-15T19:16:04;10.70;99.90
5631;DHT22;2837;50.990;7.124;2023-04-15T19:18:29;10.60;99.90
5631;DHT22;2837;50.990;7.124;2023-04-15T19:20:56;10.60;99.90
5631;DHT22;2837;50.990;7.124;2023-04-15T19:23:22;10.60;99.90
5631;DHT22;2837;50.990;7.124;2023-04-15T19:25:48;10.60;99.90
5631;DHT22;2837;50.990;7.124;2023-04-15T19:28:13;10.70;99.90
5631;DHT22;2837;50.990;7.124;2023-04-15T19:30:39;10.60;99.90
5631;DHT22;2837;50.990;7.124;2023-04-15T19:33:05;10.70;99.90
5631;DHT22;2837;50.990;7.124;2023-04-15T19:35:31;10.60;99.90
5631;DHT22;2837;50.990;7.124;2023-04-15T19:37:57;10.60;99.90
5631;DHT22;2837;50.990;7.124;2023-04-15T19:40:23;10.80;99.90
5631;DHT22;2837;50.990;7.124;2023-04-15T19:42:48;10.70;99.90
5631;DHT22;2837;50.990;7.124;2023-04-15T19:45:14;10.50;99.90
5631;DHT22;2837;50.990;7.124;2023-04-15T19:47:40;10.60;99.90
5631;DHT22;2837;50.990;7.124;2023-04-15T19:50:05;10.50;99.90
5631;DHT22;2837;50.990;7.124;2023-04-15T19:52:33;10.60;99.90
5631;DHT22;2837;50.990;7.124;2023-04-15T19:54:58;10.60;99.90
5631;DHT22;2837;50.990;7.124;2023-04-15T19:57:24;10.50;99.90
5631;DHT22;2837;50.990;7.124;2023-04-15T19:59:49;10.70;99.90
5631;DHT22;2837;50.990;7.124;2023-04-15T20:02:15;10.50;99.90
5631;DHT22;2837;50.990;7.124;2023-04-15T20:04:41;10.60;99.90
5631;DHT22;2837;50.990;7.124;2023-04-15T20:07:06;10.50;99.90
5631;DHT22;2837;50.990;7.124;2023-04-15T20:09:32;10.50;99.90
5631;DHT22;2837;50.990;7.124;2023-04-15T20:11:58;10.50;99.90
5631;DHT22;2837;50.990;7.124;2023-04-15T20:14:23;10.50;99.90
5631;DHT22;2837;50.990;7.124;2023-04-15T20:16:49;10.50;99.90
5631;DHT22;2837;50.990;7.124;2023-04-15T20:19:15;10.50;99.90
5631;DHT22;2837;50.990;7.124;2023-04-15T20:21:41;10.40;99.90
5631;DHT22;2837;50.990;7.124;2023-04-15T20:24:06;10.50;99.90
5631;DHT22;2837;50.990;7.124;2023-04-15T20:26:32;10.40;99.90
5631;DHT22;2837;50.990;7.124;2023-04-15T20:28:58;10.40;99.90
5631;DHT22;2837;50.990;7.124;2023-04-15T20:31:25;10.40;99.90
5631;DHT22;2837;50.990;7.124;2023-04-15T20:33:50;10.40;99.90
5631;DHT22;2837;50.990;7.124;2023-04-15T20:36:16;10.40;99.90
5631;DHT22;2837;50.990;7.124;2023-04-15T20:38:41;10.60;99.90
5631;DHT22;2837;50.990;7.124;2023-04-15T20:41:07;10.60;99.90
5631;DHT22;2837;50.990;7.124;2023-04-15T20:43:32;10.40;99.90
5631;DHT22;2837;50.990;7.124;2023-04-15T20:45:58;10.50;99.90
5631;DHT22;2837;50.990;7.124;2023-04-15T20:48:23;10.40;99.90
5631;DHT22;2837;50.990;7.124;2023-04-15T20:50:50;10.40;99.90
5631;DHT22;2837;50.990;7.124;2023-04-15T20:53:16;10.40;99.90
5631;DHT22;2837;50.990;7.124;2023-04-15T20:55:41;10.40;99.90
5631;DHT22;2837;50.990;7.124;2023-04-15T20:58:11;10.30;99.90
